createdAt,value
2022-09-07T00:01:15.824Z,18.76
2022-09-07T00:06:12.505Z,18.75
2022-09-07T00:11:12.048Z,18.68
2022-09-07T00:16:11.738Z,18.59
2022-09-07T00:21:09.229Z,18.71
2022-09-07T00:26:03.816Z,18.69
2022-09-07T00:30:57.269Z,18.67
2022-09-07T00:35:50.848Z,18.74
2022-09-07T00:40:45.614Z,18.71
2022-09-07T00:45:39.129Z,18.79
2022-09-07T00:50:38.608Z,18.74
2022-09-07T00:55:34.765Z,18.57
2022-09-07T01:00:29.818Z,18.50
2022-09-07T01:05:30.625Z,18.53
2022-09-07T01:10:30.677Z,18.55
2022-09-07T01:15:40.718Z,18.55
2022-09-07T01:20:59.387Z,18.46
2022-09-07T01:26:22.392Z,18.33
2022-09-07T01:31:31.798Z,18.39
2022-09-07T01:36:36.212Z,18.35
2022-09-07T01:41:40.063Z,18.39
2022-09-07T01:46:43.410Z,18.40
2022-09-07T01:51:42.511Z,18.27
2022-09-07T01:56:43.166Z,18.25
2022-09-07T02:01:46.531Z,18.28
2022-09-07T02:06:48.056Z,18.31
2022-09-07T02:11:46.759Z,18.37
2022-09-07T02:16:52.470Z,18.18
2022-09-07T02:21:54.135Z,18.12
2022-09-07T02:26:51.617Z,18.17
2022-09-07T02:31:47.367Z,18.28
2022-09-07T02:36:46.462Z,18.21
2022-09-07T02:41:43.141Z,18.13
2022-09-07T02:47:00.960Z,18.09
2022-09-07T02:52:08.497Z,18.26
2022-09-07T02:57:23.166Z,18.41
2022-09-07T03:02:29.959Z,18.35
2022-09-07T03:07:34.545Z,18.37
2022-09-07T03:12:41.897Z,18.42
2022-09-07T03:17:36.675Z,18.46
2022-09-07T03:22:33.892Z,18.48
2022-09-07T03:27:27.348Z,18.46
2022-09-07T03:32:20.711Z,18.38
2022-09-07T03:37:15.796Z,18.43
2022-09-07T03:42:09.300Z,18.48
2022-09-07T03:47:02.933Z,18.48
2022-09-07T03:51:56.303Z,18.43
2022-09-07T03:56:51.075Z,18.47
2022-09-07T04:01:44.453Z,18.48
2022-09-07T04:06:37.891Z,18.43
2022-09-07T04:11:31.909Z,18.42
2022-09-07T04:16:28.946Z,18.42
2022-09-07T04:21:24.373Z,18.29
2022-09-07T04:26:22.777Z,18.37
2022-09-07T04:31:19.487Z,18.39
2022-09-07T04:36:15.567Z,18.10
2022-09-07T04:41:12.049Z,18.21
2022-09-07T04:46:07.249Z,18.31
2022-09-07T04:51:06.857Z,18.33
2022-09-07T04:56:02.240Z,18.49
2022-09-07T05:00:55.707Z,18.43
2022-09-07T05:05:49.480Z,18.49
2022-09-07T05:10:53.042Z,18.46
2022-09-07T05:15:48.323Z,18.52
2022-09-07T05:20:42.713Z,18.37
2022-09-07T05:25:36.784Z,18.20
2022-09-07T05:35:44.949Z,18.20
2022-09-07T05:40:40.675Z,18.30
2022-09-07T05:45:34.399Z,18.40
2022-09-07T05:50:27.781Z,18.34
2022-09-07T05:55:30.067Z,18.38
2022-09-07T06:00:23.976Z,18.24
2022-09-07T06:05:17.621Z,18.29
2022-09-07T06:15:25.923Z,18.48
2022-09-07T06:20:19.425Z,18.48
2022-09-07T06:25:12.837Z,18.55
2022-09-07T06:30:07.688Z,18.54
2022-09-07T06:35:02.455Z,18.42
2022-09-07T06:39:55.937Z,18.52
2022-09-07T06:44:49.356Z,18.66
2022-09-07T06:49:42.729Z,18.72
2022-09-07T06:59:50.858Z,18.86
2022-09-07T07:04:44.386Z,19.00
2022-09-07T07:09:39.336Z,19.07
2022-09-07T07:14:34.671Z,19.20
2022-09-07T07:19:29.622Z,19.34
2022-09-07T07:24:24.046Z,19.54
2022-09-07T07:29:19.155Z,19.63
2022-09-07T07:34:13.095Z,19.82
2022-09-07T07:39:06.707Z,19.97
2022-09-07T07:44:00.508Z,20.12
2022-09-07T07:48:56.792Z,19.99
2022-09-07T07:53:50.201Z,20.01
2022-09-07T07:58:47.474Z,20.02
2022-09-07T08:03:43.983Z,20.21
2022-09-07T08:08:39.545Z,20.27
2022-09-07T08:13:33.782Z,20.21
2022-09-07T08:18:27.508Z,20.19
2022-09-07T08:23:21.426Z,20.29
2022-09-07T08:28:15.966Z,20.33
2022-09-07T08:33:09.235Z,20.38
2022-09-07T08:38:02.449Z,20.58
2022-09-07T08:43:12.192Z,20.77
2022-09-07T08:48:07.538Z,20.92
2022-09-07T08:53:08.418Z,21.06
2022-09-07T08:58:27.107Z,21.62
2022-09-07T09:03:32.150Z,21.65
2022-09-07T09:08:52.509Z,21.92
2022-09-07T09:14:03.219Z,22.49
2022-09-07T09:19:20.405Z,22.66
2022-09-07T09:24:19.117Z,22.80
2022-09-07T09:29:16.803Z,22.91
2022-09-07T09:34:15.104Z,23.14
2022-09-07T09:39:31.429Z,23.31
2022-09-07T09:44:27.951Z,23.68
2022-09-07T09:49:26.970Z,23.38
2022-09-07T09:54:28.540Z,23.40
2022-09-07T10:04:43.779Z,23.87
2022-09-07T10:09:41.598Z,24.24
2022-09-07T10:14:43.173Z,24.31
2022-09-07T10:19:39.813Z,24.21
2022-09-07T10:24:41.464Z,23.92
2022-09-07T10:29:36.133Z,23.97
2022-09-07T10:34:44.982Z,24.15
2022-09-07T10:39:43.566Z,24.34
2022-09-07T10:44:55.383Z,24.44
2022-09-07T10:55:20.158Z,24.48
2022-09-07T11:00:17.314Z,24.39
2022-09-07T11:05:29.772Z,24.49
2022-09-07T11:10:41.084Z,24.62
2022-09-07T11:15:43.562Z,24.48
2022-09-07T11:20:46.430Z,24.25
2022-09-07T11:25:49.026Z,24.05
2022-09-07T11:30:48.278Z,24.02
2022-09-07T11:35:51.653Z,24.14
2022-09-07T11:41:03.047Z,23.94
2022-09-07T11:46:05.008Z,23.96
2022-09-07T11:51:03.455Z,23.96
2022-09-07T11:56:04.927Z,23.92
2022-09-07T12:01:17.228Z,23.65
2022-09-07T12:06:51.829Z,23.79
2022-09-07T12:12:20.532Z,23.96
2022-09-07T12:17:33.983Z,24.19
2022-09-07T12:22:27.609Z,24.18
2022-09-07T12:27:41.333Z,24.24
2022-09-07T12:33:05.876Z,24.37
2022-09-07T12:38:01.103Z,24.52
2022-09-07T12:43:53.736Z,24.56
2022-09-07T12:49:04.641Z,24.50
2022-09-07T12:54:07.936Z,24.61
2022-09-07T12:59:35.718Z,24.50
2022-09-07T13:05:06.315Z,24.31
2022-09-07T13:10:03.635Z,24.49
2022-09-07T13:15:00.625Z,24.53
2022-09-07T13:20:30.118Z,24.66
2022-09-07T13:26:00.038Z,24.66
2022-09-07T13:31:16.676Z,24.61
2022-09-07T13:36:37.843Z,24.69
2022-09-07T13:41:39.016Z,24.83
2022-09-07T13:47:20.268Z,24.72
2022-09-07T13:52:20.032Z,24.59
2022-09-07T13:57:27.563Z,24.45
2022-09-07T14:02:27.503Z,24.37
2022-09-07T14:07:25.211Z,24.34
2022-09-07T14:12:21.277Z,24.39
2022-09-07T14:17:20.495Z,24.46
2022-09-07T14:22:19.971Z,24.51
2022-09-07T14:27:24.686Z,24.55
2022-09-07T14:32:23.373Z,24.56
2022-09-07T14:37:21.555Z,24.42
2022-09-07T14:42:23.091Z,24.45
2022-09-07T14:47:29.457Z,24.40
2022-09-07T14:52:37.796Z,24.46
2022-09-07T14:57:35.455Z,24.45
2022-09-07T15:02:37.371Z,24.47
2022-09-07T15:07:39.494Z,24.43
2022-09-07T15:12:38.856Z,24.46
2022-09-07T15:17:49.242Z,24.42
2022-09-07T15:22:44.184Z,24.27
2022-09-07T15:27:38.462Z,24.17
2022-09-07T15:32:34.356Z,24.05
2022-09-07T15:43:11.473Z,23.96
2022-09-07T15:48:07.067Z,23.96
2022-09-07T15:53:01.706Z,23.95
2022-09-07T15:58:10.711Z,23.91
2022-09-07T16:03:07.079Z,23.80
2022-09-07T16:13:21.812Z,23.65
2022-09-07T16:18:18.359Z,23.52
2022-09-07T16:23:15.927Z,23.34
2022-09-07T16:28:54.945Z,23.26
2022-09-07T16:33:48.640Z,23.11
2022-09-07T16:38:44.757Z,22.90
2022-09-07T16:43:39.952Z,22.67
2022-09-07T16:48:36.514Z,22.59
2022-09-07T16:53:31.150Z,22.61
2022-09-07T16:58:38.313Z,22.64
2022-09-07T17:03:33.137Z,22.41
2022-09-07T17:08:26.492Z,22.19
2022-09-07T17:13:20.306Z,22.08
2022-09-07T17:18:13.842Z,22.05
2022-09-07T17:23:08.555Z,22.07
2022-09-07T17:28:01.894Z,22.06
2022-09-07T17:32:55.190Z,22.10
2022-09-07T17:37:48.463Z,22.13
2022-09-07T17:47:56.499Z,21.85
2022-09-07T17:52:53.026Z,21.78
2022-09-07T17:57:47.925Z,21.73
2022-09-07T18:02:41.114Z,21.78
2022-09-07T18:07:35.070Z,21.98
2022-09-07T18:12:28.319Z,22.21
2022-09-07T18:17:25.676Z,22.39
2022-09-07T18:22:19.106Z,22.36
2022-09-07T18:27:12.509Z,22.26
2022-09-07T18:32:09.813Z,22.30
2022-09-07T18:37:05.086Z,22.25
2022-09-07T18:41:58.530Z,21.64
2022-09-07T18:46:52.008Z,21.39
2022-09-07T18:57:00.119Z,20.24
2022-09-07T19:02:05.040Z,20.18
2022-09-07T19:07:02.948Z,20.50
2022-09-07T19:12:24.118Z,20.30
2022-09-07T19:17:27.661Z,20.04
2022-09-07T19:22:27.395Z,20.02
2022-09-07T19:27:32.874Z,19.80
2022-09-07T19:32:41.862Z,19.87
2022-09-07T19:37:37.169Z,20.09
2022-09-07T19:42:37.449Z,19.87
2022-09-07T19:47:40.646Z,19.70
2022-09-07T19:52:37.410Z,19.76
2022-09-07T19:57:50.565Z,19.25
2022-09-07T20:02:48.511Z,19.25
2022-09-07T20:07:56.666Z,19.48
2022-09-07T20:13:01.383Z,19.34
2022-09-07T20:17:57.999Z,19.52
2022-09-07T20:22:51.437Z,19.35
2022-09-07T20:27:48.537Z,19.24
2022-09-07T20:32:43.122Z,18.93
2022-09-07T20:37:54.080Z,18.14
2022-09-07T20:42:47.556Z,18.01
2022-09-07T20:47:42.277Z,18.52
2022-09-07T20:52:35.785Z,18.32
2022-09-07T20:57:29.060Z,18.52
2022-09-07T21:02:22.501Z,18.60
2022-09-07T21:07:17.665Z,18.82
2022-09-07T21:12:10.929Z,18.43
2022-09-07T21:17:04.189Z,18.66
2022-09-07T21:21:57.485Z,18.62
2022-09-07T21:26:52.635Z,18.67
2022-09-07T21:31:46.461Z,18.59
2022-09-07T21:36:39.993Z,18.58
2022-09-07T21:41:33.957Z,18.56
2022-09-07T21:46:30.719Z,18.61
2022-09-07T21:51:24.667Z,18.72
2022-09-07T21:56:17.914Z,18.72
2022-09-07T22:01:16.459Z,18.49
2022-09-07T22:06:15.442Z,18.55
2022-09-07T22:11:12.712Z,18.30
2022-09-07T22:16:07.401Z,18.31
2022-09-07T22:21:07.279Z,18.14
2022-09-07T22:26:02.125Z,18.21
2022-09-07T22:30:55.302Z,18.62
2022-09-07T22:35:48.778Z,18.51
2022-09-07T22:40:42.016Z,18.42
2022-09-07T22:45:36.639Z,18.12
2022-09-07T22:50:29.871Z,18.26
2022-09-07T22:55:23.087Z,18.07
2022-09-07T23:00:17.176Z,18.09
2022-09-07T23:05:12.060Z,18.22
2022-09-07T23:10:06.063Z,18.21
2022-09-07T23:14:59.319Z,18.12
2022-09-07T23:19:52.613Z,18.15
2022-09-07T23:24:47.331Z,18.33
2022-09-07T23:29:40.540Z,18.37
2022-09-07T23:34:33.791Z,18.18
2022-09-07T23:39:27.259Z,18.07
2022-09-07T23:44:21.920Z,17.77
2022-09-07T23:49:15.479Z,17.98
2022-09-07T23:54:09.121Z,17.83
2022-09-07T23:59:02.458Z,17.44
